Date,TemperatureHighF,TemperatureAvgF,TemperatureLowF,DewpointHighF,DewpointAvgF,DewpointLowF,HumidityHigh,HumidityAvg,HumidityLow,PressureMaxIn,PressureMinIn,WindSpeedMaxMPH,WindSpeedAvgMPH,GustSpeedMaxMPH,PrecipitationSumIn
2013-1-1,31,17,8,12,6,2,76,63,32,30.21,30.09,4,0,8,0.00
2013-1-2,33,18,7,15,9,2,81,67,40,30.20,30.06,4,1,11,0.00
2013-1-3,29,25,17,24,19,12,85,77,69,30.25,30.06,2,1,7,0.00
2013-1-4,39,24,13,23,17,8,83,73,51,30.25,30.11,4,2,12,0.00
2013-1-5,40,30,20,32,26,17,94,85,61,30.23,29.92,4,1,12,0.02
2013-1-6,36,27,17,32,22,15,90,81,64,30.31,29.90,4,1,11,0.00
2013-1-7,42,28,15,27,22,13,91,76,52,30.32,30.08,6,2,14,0.00
2013-1-8,45,34,24,31,27,21,91,77,54,30.15,30.00,4,1,9,0.00
2013-1-9,54,38,26,32,26,18,85,64,30,30.47,30.00,5,1,12,0.00
2013-1-10,47,38,21,42,29,18,96,74,40,30.48,29.86,4,2,8,0.47
2013-1-11,52,50,44,50,48,43,97,92,86,29.85,29.65,4,2,11,0.15
2013-1-12,51,42,30,48,36,26,90,82,71,29.98,29.70,4,1,11,0.01
2013-1-13,30,22,13,28,18,8,92,85,77,30.23,29.86,0,0,6,0.00
2013-1-14,30,16,10,15,10,6,87,76,50,30.42,30.22,0,0,0,0.00
2013-1-15,35,20,9,18,12,6,88,75,47,30.42,30.10,2,0,4,0.00
2013-1-16,38,29,13,26,21,10,90,72,54,30.09,29.81,6,1,15,0.01
2013-1-17,35,25,18,28,12,9,91,59,37,30.38,30.06,4,0,8,0.02
2013-1-18,45,34,16,30,24,12,87,69,52,30.41,29.90,8,3,19,0.00
2013-1-19,50,40,26,36,30,9,77,67,47,29.93,29.72,5,2,12,0.00
2013-1-20,26,17,12,11,4,2,66,56,46,30.30,29.92,5,1,14,0.00
2013-1-21,18,9,3,5,-3,-8,73,58,34,30.25,30.12,4,1,8,0.00
2013-1-22,17,6,-2,-2,-5,-10,73,59,38,30.36,30.24,3,0,7,0.00
2013-1-23,21,16,10,13,7,-2,78,66,55,30.32,30.08,4,1,9,0.00
2013-1-24,24,15,5,10,1,-4,68,55,41,30.59,30.31,4,1,7,0.00
2013-1-25,28,24,18,21,16,6,87,74,54,30.33,29.95,4,1,11,0.00
2013-1-26,39,21,7,18,9,3,84,63,28,30.37,30.16,3,0,8,0.05
2013-1-27,33,27,24,22,19,17,77,72,65,30.35,30.19,4,2,7,0.00
2013-2-18,50,42,29,45,39,26,93,90,80,29.98,29.82,7,3,14,0.25
2013-2-19,29,16,9,26,9,3,90,76,67,30.56,29.98,4,0,14,0.02
2013-2-20,32,16,7,15,7,0,85,69,48,30.71,30.31,2,1,7,0.00
2013-2-21,31,24,12,25,19,8,92,80,76,30.38,29.99,6,1,14,0.01
2013-2-22,35,30,24,32,26,22,94,86,79,29.99,29.81,4,1,11,0.00
2013-2-23,30,25,18,24,19,15,87,77,64,29.98,29.92,4,1,7,0.00
2013-2-24,49,26,12,25,18,9,90,72,34,30.16,29.98,3,0,5,0.17
2013-2-25,55,34,17,28,23,15,91,68,32,30.18,29.97,4,1,7,0.00
2013-2-26,36,34,32,32,29,25,96,84,64,29.97,29.55,8,2,12,0.00
2013-2-27,35,33,32,32,31,30,96,92,84,29.73,29.54,2,0,4,0.04
2013-2-28,41,34,28,32,29,22,94,82,67,30.08,29.73,3,0,9,0.33
2013-3-1,31,27,25,24,22,20,85,80,72,30.19,30.06,2,0,5,0.00
2013-3-2,41,26,13,20,16,8,82,67,38,30.20,30.15,2,0,7,0.04
2013-3-3,44,23,7,18,10,4,88,62,22,30.17,30.08,3,0,5,0.00
2013-3-4,34,28,15,26,20,11,88,71,58,30.14,29.99,4,1,8,0.00
2013-3-5,35,32,28,32,29,26,95,89,76,30.00,29.81,2,0,8,0.02
2013-3-6,37,31,27,29,26,24,93,83,71,30.31,30.00,2,0,7,0.07
2013-3-7,47,32,24,27,24,20,87,73,42,30.42,30.30,2,0,5,0.15
2013-3-8,48,32,17,30,23,15,92,72,45,30.48,30.30,4,1,7,0.00
2013-3-9,44,39,31,34,30,24,87,71,62,30.30,29.85,5,2,10,0.05
2013-3-10,50,45,40,48,43,34,97,93,69,29.89,29.62,4,1,10,0.66
2013-3-11,47,41,32,46,40,30,98,96,90,30.11,29.61,2,0,8,0.00
2013-3-12,40,32,26,31,26,20,90,79,62,30.33,30.11,4,1,10,0.04
2013-3-13,41,29,22,21,17,11,81,62,31,30.62,30.33,3,1,8,0.00
2013-3-14,35,29,20,30,23,16,93,79,52,30.63,30.38,3,1,7,0.01
2013-3-15,42,35,29,38,33,27,95,90,75,30.39,30.05,2,0,7,0.11
2013-3-16,36,33,31,34,29,24,96,86,74,30.42,30.02,3,0,9,0.01
2013-3-17,42,32,25,25,22,17,76,66,48,30.50,30.29,4,1,10,0.00
2013-3-18,35,31,22,32,26,14,92,84,67,30.30,29.93,4,1,9,0.08
2013-3-19,38,27,17,18,15,10,75,61,42,30.39,30.11,5,2,13,0.01
2013-3-20,29,21,14,15,8,4,81,57,43,30.41,30.33,4,1,8,0.00
2013-3-21,42,26,12,17,13,6,82,58,33,30.36,30.30,2,0,7,0.00
2013-3-22,49,30,15,23,16,12,88,59,26,30.37,30.30,3,0,7,0.00
2013-3-23,52,35,22,29,21,17,87,61,25,30.43,30.32,3,1,10,0.00
2013-3-24,38,34,31,30,26,23,90,73,61,30.33,29.96,6,2,14,0.00
2013-3-25,41,34,30,31,27,25,82,75,62,30.38,30.01,3,1,8,0.00
2013-3-26,47,36,27,28,25,22,82,65,41,30.56,30.38,2,0,5,0.00
2013-3-27,47,37,26,28,24,19,84,61,38,30.62,30.56,2,0,5,0.00
2013-3-28,59,39,21,32,23,18,91,58,22,30.65,30.57,3,0,8,0.00
2013-3-29,66,45,27,30,22,16,85,48,16,30.62,30.52,2,0,7,0.00
2013-3-30,61,47,27,41,32,23,87,60,36,30.55,30.16,5,2,13,0.00
2013-3-31,64,49,35,42,34,26,89,60,30,30.21,30.03,4,1,14,0.00
2013-4-1,48,36,28,26,17,12,73,49,24,30.49,30.21,3,1,12,0.00
2013-4-2,52,35,20,24,15,5,80,47,15,30.61,30.49,4,1,10,0.00
2013-4-3,54,36,19,24,15,10,80,46,17,30.74,30.60,3,1,8,0.00
2013-4-4,66,46,25,34,23,16,74,45,16,30.62,30.28,4,1,8,0.02
2013-4-5,56,44,36,34,23,11,73,46,24,30.53,30.31,4,1,11,0.33
2013-4-6,70,54,36,47,33,22,83,47,28,30.45,29.92,7,3,17,0.08
2013-4-7,68,51,40,48,39,33,84,65,35,30.27,29.95,3,1,8,0.00
2013-4-8,74,57,40,54,48,34,96,72,46,30.28,29.91,8,2,19,0.43
2013-4-9,66,48,41,53,43,39,94,84,61,30.30,30.13,4,2,14,0.21
2013-4-10,42,41,38,41,39,36,95,94,91,30.34,30.11,5,2,11,0.63
2013-4-11,50,45,38,49,44,37,96,95,93,30.17,29.88,5,1,11,0.18
2013-4-12,46,40,37,40,34,31,92,81,72,30.17,29.90,4,1,11,0.01
2013-4-13,51,41,34,33,30,28,88,67,44,30.30,30.16,4,1,8,0.02
2013-4-14,75,60,39,51,42,30,79,54,39,30.31,29.97,7,3,12,0.00
2013-4-15,71,56,45,56,49,43,94,79,54,30.31,29.99,8,2,18,0.28
2013-4-16,65,50,38,43,37,31,94,63,29,30.58,30.26,2,1,8,0.01
2013-4-17,50,45,42,49,41,32,97,88,62,30.58,30.10,5,1,10,1.98
2013-4-18,61,54,42,60,53,36,99,95,80,30.15,29.74,8,3,13,4.62
2013-4-19,41,38,35,34,30,29,85,75,67,30.26,29.88,6,2,16,0.00
2013-4-20,52,36,28,30,25,19,85,64,29,30.74,30.26,3,1,8,0.00
2013-4-21,61,46,32,33,27,21,71,49,31,30.83,30.64,5,2,9,0.00
2013-4-22,74,57,41,39,35,30,67,45,24,30.65,30.38,6,2,8,0.05
2013-4-23,59,49,38,51,44,36,95,84,49,30.38,30.22,2,0,5,0.63
2013-4-24,58,44,36,37,33,27,96,68,35,30.45,30.27,4,1,10,0.04
2013-4-25,60,46,36,39,33,28,87,63,33,30.65,30.39,3,1,11,0.02
2013-4-26,70,54,35,48,39,29,80,58,39,30.66,30.56,6,2,14,0.00
2013-4-27,77,60,42,49,42,35,95,56,24,30.63,30.34,4,1,9,0.00
2013-4-28,73,59,52,54,51,42,92,75,48,30.33,30.16,2,0,5,0.04
2013-4-29,78,65,49,56,52,47,94,68,42,30.26,30.11,4,2,10,0.00
2013-4-30,89,74,60,62,57,53,80,58,32,30.28,30.12,5,2,15,0.00
2013-5-1,90,76,60,60,54,48,84,51,24,30.47,30.28,4,1,8,0.02
2013-5-2,65,52,45,53,44,40,92,75,51,30.56,30.45,4,1,10,0.38
2013-5-3,51,46,41,48,44,38,94,91,85,30.48,30.28,4,1,9,0.21
2013-5-4,78,61,49,54,49,45,92,68,39,30.38,30.27,5,1,8,0.00
2013-5-5,80,63,49,48,45,41,84,55,29,30.38,30.30,4,1,12,0.00
2013-5-6,81,64,51,48,40,25,73,46,15,30.37,30.31,4,1,10,0.00
2013-5-7,86,65,44,49,43,38,85,50,22,30.38,30.32,2,0,5,0.00
2013-5-8,92,69,46,54,46,38,90,51,15,30.38,30.29,2,0,8,0.00
2013-5-9,79,61,50,61,54,47,94,78,46,30.31,30.17,2,0,6,0.44
2013-5-10,51,48,46,49,46,43,96,90,80,30.32,30.12,3,0,8,0.17
2013-5-11,65,51,40,51,40,28,96,69,31,30.38,30.18,4,1,11,0.00
2013-5-12,64,48,34,33,29,24,79,52,23,30.45,30.38,3,1,9,0.00
2013-5-13,74,54,31,40,30,19,92,51,13,30.51,30.33,3,0,8,0.00
2013-5-14,102,75,53,60,48,35,60,43,10,30.33,30.00,4,1,13,0.00
2013-5-15,94,77,58,59,52,42,82,46,19,30.18,30.00,3,0,8,0.00
2013-5-16,90,70,52,57,48,40,92,53,18,30.32,30.17,4,1,8,0.00
2013-5-17,81,64,55,59,51,42,85,63,43,30.37,30.29,4,0,10,0.05
2013-5-18,87,73,55,65,60,50,92,66,45,30.40,30.29,2,1,6,0.01
2013-5-19,88,81,60,68,63,57,92,58,41,30.30,30.10,3,1,6,0.00
2013-5-20,91,80,66,69,62,52,94,57,27,30.15,30.04,4,1,20,1.12
2013-5-21,82,72,62,67,64,61,97,77,55,30.10,30.01,4,1,12,0.09
2013-5-22,73,67,39,67,62,31,97,85,61,30.06,29.92,4,0,10,0.89
2013-5-23,63,52,41,57,47,36,95,84,67,30.47,29.94,4,1,11,0.71
2013-5-24,66,51,36,41,35,31,89,59,32,30.61,30.46,2,1,11,0.00
2013-5-25,60,52,44,45,39,34,81,63,42,30.57,30.47,2,0,6,0.00
2013-5-26,74,57,43,54,46,36,87,67,34,30.48,30.30,2,0,7,0.04
2013-5-27,66,60,55,60,57,52,94,89,80,30.32,30.04,2,1,6,0.15
2013-5-28,78,69,60,70,66,58,99,89,72,30.07,29.93,4,1,11,0.24
2013-5-29,86,74,63,71,66,61,96,78,58,30.15,29.97,4,0,8,0.07
2013-5-30,85,75,64,74,66,60,94,75,61,30.13,29.96,4,1,12,0.32
2013-5-31,79,71,64,69,66,62,99,84,66,30.07,29.91,4,1,10,0.30
2013-6-1,76,68,62,70,64,61,97,85,72,29.95,29.87,4,1,11,0.47
2013-6-2,62,56,45,61,53,43,97,90,79,30.23,29.92,2,0,5,0.00
2013-6-3,74,57,41,52,45,40,97,69,41,30.31,30.21,2,0,5,0.00
2013-6-4,78,62,46,51,47,43,93,61,33,30.34,30.26,3,0,7,0.00
2013-6-5,79,63,55,59,51,46,81,66,43,30.30,30.12,3,0,7,0.00
2013-6-6,67,58,51,59,52,46,95,80,56,30.13,30.07,4,1,9,0.33
2013-6-7,74,62,50,54,48,42,86,62,41,30.10,29.88,4,1,9,0.00
2013-6-8,81,64,45,52,46,40,94,57,27,29.99,29.90,2,0,5,0.00
2013-6-9,83,71,57,62,55,46,87,59,42,29.99,29.79,3,1,7,0.02
2013-6-10,85,71,62,69,64,60,96,80,50,29.85,29.73,2,0,4,0.04
2013-6-11,89,73,60,72,65,58,96,79,42,29.91,29.79,4,0,8,0.15
2013-6-12,88,73,64,77,68,63,98,87,64,29.91,29.58,8,1,8,0.71
2013-6-13,82,68,59,64,58,51,98,72,39,30.03,29.64,7,2,10,0.01
2013-6-14,81,67,53,60,54,50,91,64,41,30.11,29.99,6,2,6,0.00
2013-6-15,80,70,59,69,62,50,90,77,64,30.03,29.84,8,1,11,0.07
2013-6-16,86,76,67,70,65,60,87,70,52,29.91,29.86,7,1,13,0.00
2013-6-17,91,79,62,86,73,55,84,82,56,29.92,29.84,7,2,7,0.02
2013-6-18,73,64,56,60,54,47,91,72,55,30.05,29.90,9,3,11,0.01
2013-6-19,82,67,53,61,51,43,87,60,40,30.12,30.04,4,1,6,0.00
2013-6-20,91,75,57,68,59,43,80,58,39,30.14,30.03,3,1,4,0.00
2013-6-21,84,73,68,70,66,62,96,79,61,30.16,29.86,6,1,8,0.27
2013-6-22,84,74,68,75,69,65,97,85,70,30.09,29.93,6,1,10,0.19
2013-6-23,90,76,66,75,69,64,95,79,56,30.03,29.91,7,2,12,0.04
2013-6-24,88,74,67,74,69,64,96,85,52,30.06,29.85,7,2,7,0.18
2013-6-25,82,73,67,76,69,65,98,89,75,29.96,29.80,4,1,17,0.38
2013-6-26,84,73,67,72,68,66,97,86,66,29.83,29.71,5,1,8,0.41
2013-6-27,94,78,65,77,68,62,99,76,48,29.78,29.68,13,1,13,0.00
2013-6-28,87,74,66,67,63,60,87,70,41,29.71,29.60,8,1,11,0.01
2013-6-29,69,67,64,66,62,56,94,85,68,29.75,29.59,8,2,10,0.15
2013-6-30,84,70,62,64,55,41,89,62,36,29.97,29.75,11,3,14,0.00
2013-7-1,79,68,58,54,51,45,79,56,32,30.05,29.96,11,3,12,0.00
2013-7-2,70,64,59,56,54,50,84,70,58,30.06,30.02,8,2,9,0.00
2013-7-3,67,63,61,64,60,56,95,91,83,30.05,29.99,2,0,3,0.22
2013-8-14,71,65,57,53,52,51,83,64,49,30.15,30.12,2,0,2,0.00
2013-8-15,80,64,54,59,55,51,93,74,44,30.16,30.08,4,0,5,0.00
2013-8-16,86,68,54,63,55,50,97,67,33,30.17,30.11,4,1,7,0.00
2013-8-17,85,68,54,58,54,50,94,65,34,30.21,30.14,4,1,5,0.00
2013-8-18,85,67,57,61,57,55,93,74,37,30.16,29.87,3,0,4,0.00
2013-8-19,88,74,57,66,62,56,96,68,42,29.92,29.82,4,1,5,0.00
2013-8-20,91,77,64,69,65,61,97,69,41,29.92,29.82,8,1,8,0.00
2013-8-21,94,79,66,71,67,64,96,70,41,29.89,29.76,8,2,8,0.00
2013-8-22,77,71,65,73,69,65,100,94,79,29.95,29.81,5,1,8,1.26
2013-8-23,86,71,60,70,58,48,100,70,32,29.96,29.89,6,1,8,0.01
2013-8-24,90,73,58,67,62,57,100,71,42,30.05,29.96,4,1,4,0.00
2013-8-25,91,77,64,72,65,58,81,68,48,30.04,29.93,8,1,8,0.00
2013-8-26,92,79,66,76,70,63,91,76,56,29.95,29.80,6,1,8,0.00
2013-8-27,95,84,75,76,74,70,89,73,54,29.81,29.65,10,2,11,0.00
2013-8-28,86,78,71,75,70,67,92,76,64,29.83,29.64,5,1,6,0.00
2013-8-29,94,78,68,73,67,62,100,72,44,29.88,29.77,4,1,4,0.00
2013-8-30,97,77,67,78,70,64,100,81,46,29.78,29.56,11,2,11,0.32
2013-8-31,77,73,69,77,71,68,100,93,87,29.63,29.58,4,1,4,0.84
2013-9-1,84,73,65,73,69,64,100,90,67,29.62,29.53,8,1,12,0.44
2013-9-2,82,67,60,71,64,58,99,92,57,29.78,29.60,5,0,5,0.01
2013-9-3,80,64,53,60,57,53,100,80,45,29.88,29.77,4,0,4,0.00
2013-9-4,84,70,54,64,60,54,100,73,46,29.92,29.83,5,1,5,0.00
2013-9-5,78,73,59,62,58,50,79,61,51,29.94,29.86,3,1,4,0.00
2013-9-6,86,71,57,68,61,52,92,71,48,29.93,29.73,4,1,5,0.00
2013-9-7,88,75,65,69,66,62,100,75,45,29.73,29.60,5,1,7,0.00
2013-9-8,83,75,72,71,68,67,89,80,63,29.73,29.65,8,3,10,0.00
2013-9-9,94,81,69,77,72,67,94,76,55,29.68,29.54,6,2,6,0.00
2013-9-10,96,85,74,73,68,66,77,59,38,29.73,29.60,8,2,12,0.00
2013-9-11,94,79,71,74,69,66,89,73,46,29.77,29.69,4,1,7,0.00
2013-9-12,86,74,68,71,63,53,92,72,33,29.73,29.66,5,1,8,0.00
2013-9-14,75,65,55,51,46,43,73,52,35,29.90,29.75,4,1,6,0.00
2013-9-15,60,58,54,60,54,45,100,89,66,29.86,29.69,4,0,4,0.58
2013-9-16,69,59,49,59,52,47,100,79,50,30.05,29.86,6,2,8,0.01
2013-9-17,72,61,48,57,53,47,97,76,55,30.03,29.82,5,1,5,0.00
2013-9-18,83,68,58,71,62,53,100,83,57,29.82,29.64,4,1,6,0.37
2013-9-19,89,78,69,76,71,66,100,81,54,29.67,29.49,6,2,6,0.00
2013-9-20,76,68,57,69,63,53,100,85,67,29.57,29.48,7,2,7,0.25
2013-9-21,70,58,48,54,51,45,97,79,48,29.66,29.53,5,1,6,0.00
2013-9-22,72,56,44,53,48,43,100,78,47,29.76,29.66,4,1,4,0.00
2013-9-23,72,58,46,53,49,44,96,73,42,29.83,29.73,4,1,4,0.00
2013-9-24,75,61,51,54,51,47,93,71,43,29.76,29.64,4,1,7,0.00
2013-9-25,78,60,51,59,53,50,100,80,44,29.68,29.63,4,1,6,0.00
2013-9-26,80,63,49,60,53,49,100,74,36,29.79,29.67,4,1,4,0.00
2013-9-27,86,68,53,58,53,47,96,64,35,29.87,29.76,5,1,6,0.00
2013-9-28,86,71,56,67,57,47,97,62,40,29.79,29.59,7,2,11,0.14
2013-9-29,72,59,48,67,52,45,100,81,44,29.77,29.63,7,1,7,0.34
2013-9-30,73,52,46,51,46,45,96,86,39,29.92,29.71,4,0,5,0.00